sensor_id;sensor_type;location;lat;lon;timestamp;pressure;altitude;pressure_sealevel;temperature;humidity
2000;BME280;1001;48.87406500;9.59633600;2023-08-01T00:00:06;94254.44;;;16.62;100.00
2000;BME280;1001;48.87406500;9.59633600;2023-08-01T00:02:33;94254.94;;;16.64;100.00
2000;BME280;1001;48.87406500;9.59633600;2023-08-01T00:05:00;94243.88;;;16.62;100.00
2000;BME280;1001;48.87406500;9.59633600;2023-08-01T00:07:27;94245.72;;;16.62;100.00
2000;BME280;1001;48.87406500;9.59633600;2023-08-01T00:09:54;94242.09;;;16.58;100.00
2000;BME280;1001;48.87406500;9.59633600;2023-08-01T00:12:24;94236.03;;;16.57;100.00
2000;BME280;1001;48.87406500;9.59633600;2023-08-01T00:14:50;94222.03;;;16.57;100.00
2000;BME280;1001;48.87406500;9.59633600;2023-08-01T00:17:17;94230.47;;;16.59;100.00
2000;BME280;1001;48.87406500;9.59633600;2023-08-01T00:19:44;94218.34;;;16.58;100.00
2000;BME280;1001;48.87406500;9.59633600;2023-08-01T00:22:10;94220.50;;;16.56;100.00
2000;BME280;1001;48.87406500;9.59633600;2023-08-01T00:24:37;94214.91;;;16.57;100.00
2000;BME280;1001;48.87406500;9.59633600;2023-08-01T00:27:04;94213.88;;;16.58;100.00
2000;BME280;1001;48.87406500;9.59633600;2023-08-01T00:29:35;94223.13;;;16.56;100.00
2000;BME280;1001;48.87406500;9.59633600;2023-08-01T00:32:03;94209.16;;;16.55;100.00
2000;BME280;1001;48.87406500;9.59633600;2023-08-01T00:34:29;94204.94;;;16.54;100.00
2000;BME280;1001;48.87406500;9.59633600;2023-08-01T00:36:56;94203.13;;;16.50;100.00
2000;BME280;1001;48.87406500;9.59633600;2023-08-01T00:39:23;94196.56;;;16.47;100.00
2000;BME280;1001;48.87406500;9.59633600;2023-08-01T00:41:50;94199.19;;;16.47;100.00
2000;BME280;1001;48.87406500;9.59633600;2023-08-01T00:44:16;94198.69;;;16.45;100.00
2000;BME280;1001;48.87406500;9.59633600;2023-08-01T00:46:44;94190.28;;;16.43;100.00
2000;BME280;1001;48.87406500;9.59633600;2023-08-01T00:49:11;94168.88;;;16.45;100.00
2000;BME280;1001;48.87406500;9.59633600;2023-08-01T00:51:38;94166.53;;;16.43;100.00
2000;BME280;1001;48.87406500;9.59633600;2023-08-01T00:54:05;94153.34;;;16.43;100.00
2000;BME280;1001;48.87406500;9.59633600;2023-08-01T00:56:32;94143.09;;;16.42;100.00
2000;BME280;1001;48.87406500;9.59633600;2023-08-01T00:59:00;94149.66;;;16.44;100.00
2000;BME280;1001;48.87406500;9.59633600;2023-08-01T01:01:27;94147.09;;;16.39;100.00
2000;BME280;1001;48.87406500;9.59633600;2023-08-01T01:03:55;94151.88;;;16.37;100.00
2000;BME280;1001;48.87406500;9.59633600;2023-08-01T01:06:24;94130.78;;;16.37;100.00
2000;BME280;1001;48.87406500;9.59633600;2023-08-01T01:08:54;94119.13;;;16.38;100.00
2000;BME280;1001;48.87406500;9.59633600;2023-08-01T01:11:21;94116.28;;;16.34;100.00
2000;BME280;1001;48.87406500;9.59633600;2023-08-01T01:13:48;94102.09;;;16.30;100.00
2000;BME280;1001;48.87406500;9.59633600;2023-08-01T01:16:18;94102.09;;;16.30;100.00
2000;BME280;1001;48.87406500;9.59633600;2023-08-01T01:18:44;94098.41;;;16.31;100.00
2000;BME280;1001;48.87406500;9.59633600;2023-08-01T01:21:12;94081.28;;;16.29;100.00
2000;BME280;1001;48.87406500;9.59633600;2023-08-01T01:23:39;94072.81;;;16.32;100.00
2000;BME280;1001;48.87406500;9.59633600;2023-08-01T01:26:07;94068.88;;;16.29;100.00
2000;BME280;1001;48.87406500;9.59633600;2023-08-01T01:28:35;94060.19;;;16.29;100.00
2000;BME280;1001;48.87406500;9.59633600;2023-08-01T01:31:03;94058.34;;;16.29;100.00
2000;BME280;1001;48.87406500;9.59633600;2023-08-01T01:33:30;94056.47;;;16.30;100.00
2000;BME280;1001;48.87406500;9.59633600;2023-08-01T01:35:57;94052.25;;;16.29;100.00
2000;BME280;1001;48.87406500;9.59633600;2023-08-01T01:38:25;94050.13;;;16.31;100.00
2000;BME280;1001;48.87406500;9.59633600;2023-08-01T01:40:52;94054.34;;;16.32;100.00
2000;BME280;1001;48.87406500;9.59633600;2023-08-01T01:43:18;94056.97;;;16.32;100.00
2000;BME280;1001;48.87406500;9.59633600;2023-08-01T01:45:45;94065.69;;;16.32;100.00
2000;BME280;1001;48.87406500;9.59633600;2023-08-01T01:48:12;94072.81;;;16.32;100.00
2000;BME280;1001;48.87406500;9.59633600;2023-08-01T01:50:38;94065.94;;;16.31;100.00
2000;BME280;1001;48.87406500;9.59633600;2023-08-01T01:53:05;94066.94;;;16.35;100.00
2000;BME280;1001;48.87406500;9.59633600;2023-08-01T01:55:33;94064.28;;;16.35;100.00
2000;BME280;1001;48.87406500;9.59633600;2023-08-01T01:57:59;94062.75;;;16.34;100.00
2000;BME280;1001;48.87406500;9.59633600;2023-08-01T02:00:26;94071.94;;;16.37;100.00
2000;BME280;1001;48.87406500;9.59633600;2023-08-01T02:02:53;94065.38;;;16.34;100.00
2000;BME280;1001;48.87406500;9.59633600;2023-08-01T02:05:19;94050.91;;;16.31;100.00
2000;BME280;1001;48.87406500;9.59633600;2023-08-01T02:07:46;94046.50;;;16.27;100.00
2000;BME280;1001;48.87406500;9.59633600;2023-08-01T02:10:13;94034.59;;;16.29;100.00
2000;BME280;1001;48.87406500;9.59633600;2023-08-01T02:12:41;94022.75;;;16.27;100.00
2000;BME280;1001;48.87406500;9.59633600;2023-08-01T02:15:08;94017.00;;;16.25;100.00
2000;BME280;1001;48.87406500;9.59633600;2023-08-01T02:17:34;94013.75;;;16.28;100.00
2000;BME280;1001;48.87406500;9.59633600;2023-08-01T02:20:01;94010.94;;;16.24;100.00
2000;BME280;1001;48.87406500;9.59633600;2023-08-01T02:22:28;94021.47;;;16.24;100.00
2000;BME280;1001;48.87406500;9.59633600;2023-08-01T02:24:54;94017.97;;;16.29;100.00
2000;BME280;1001;48.87406500;9.59633600;2023-08-01T02:27:21;94005.25;;;16.31;100.00
2000;BME280;1001;48.87406500;9.59633600;2023-08-01T02:29:49;94009.19;;;16.33;100.00
2000;BME280;1001;48.87406500;9.59633600;2023-08-01T02:32:16;94005.56;;;16.29;100.00
2000;BME280;1001;48.87406500;9.59633600;2023-08-01T02:34:43;94018.28;;;16.27;100.00
2000;BME280;1001;48.87406500;9.59633600;2023-08-01T02:37:09;94011.72;;;16.25;100.00
2000;BME280;1001;48.87406500;9.59633600;2023-08-01T02:39:36;94014.47;;;16.33;100.00
2000;BME280;1001;48.87406500;9.59633600;2023-08-01T02:42:03;93997.91;;;16.28;100.00
2000;BME280;1001;48.87406500;9.59633600;2023-08-01T02:44:29;93999.19;;;16.30;100.00
2000;BME280;1001;48.87406500;9.59633600;2023-08-01T02:46:57;94004.22;;;16.32;100.00
2000;BME280;1001;48.87406500;9.59633600;2023-08-01T02:49:24;94011.63;;;16.30;100.00
2000;BME280;1001;48.87406500;9.59633600;2023-08-01T02:51:51;94032.22;;;16.28;100.00
2000;BME280;1001;48.87406500;9.59633600;2023-08-01T02:54:17;94010.75;;;16.34;100.00
2000;BME280;1001;48.87406500;9.59633600;2023-08-01T02:56:44;94017.41;;;16.32;100.00
2000;BME280;1001;48.87406500;9.59633600;2023-08-01T02:59:11;94010.84;;;16.29;100.00
2000;BME280;1001;48.87406500;9.59633600;2023-08-01T03:01:38;93989.75;;;16.29;100.00
2000;BME280;1001;48.87406500;9.59633600;2023-08-01T03:04:06;93984.16;;;16.31;100.00
2000;BME280;1001;48.87406500;9.59633600;2023-08-01T03:06:33;93978.22;;;16.25;100.00
2000;BME280;1001;48.87406500;9.59633600;2023-08-01T03:09:01;93970.00;;;16.27;100.00
2000;BME280;1001;48.87406500;9.59633600;2023-08-01T03:11:28;93973.69;;;16.26;100.00
2000;BME280;1001;48.87406500;9.59633600;2023-08-01T03:13:55;93977.34;;;16.30;100.00
2000;BME280;1001;48.87406500;9.59633600;2023-08-01T03:16:21;93983.38;;;16.30;100.00
2000;BME280;1001;48.87406500;9.59633600;2023-08-01T03:18:48;93970.19;;;16.30;100.00
2000;BME280;1001;48.87406500;9.59633600;2023-08-01T03:21:16;93967.84;;;16.29;100.00
2000;BME280;1001;48.87406500;9.59633600;2023-08-01T03:23:43;93965.22;;;16.29;100.00
2000;BME280;1001;48.87406500;9.59633600;2023-08-01T03:26:09;93966.00;;;16.29;100.00
2000;BME280;1001;48.87406500;9.59633600;2023-08-01T03:28:36;93966.78;;;16.30;100.00
2000;BME280;1001;48.87406500;9.59633600;2023-08-01T03:31:03;93967.75;;;16.34;100.00
2000;BME280;1001;48.87406500;9.59633600;2023-08-01T03:33:29;93963.84;;;16.31;100.00
2000;BME280;1001;48.87406500;9.59633600;2023-08-01T03:35:56;93962.78;;;16.32;100.00
2000;BME280;1001;48.87406500;9.59633600;2023-08-01T03:38:24;93954.34;;;16.30;100.00
2000;BME280;1001;48.87406500;9.59633600;2023-08-01T03:40:51;93966.66;;;16.35;100.00
2000;BME280;1001;48.87406500;9.59633600;2023-08-01T03:43:17;93970.88;;;16.36;100.00
2000;BME280;1001;48.87406500;9.59633600;2023-08-01T03:45:48;93980.16;;;16.33;100.00
2000;BME280;1001;48.87406500;9.59633600;2023-08-01T03:48:15;93966.66;;;16.35;100.00
2000;BME280;1001;48.87406500;9.59633600;2023-08-01T03:50:42;93968.25;;;16.36;100.00
2000;BME280;1001;48.87406500;9.59633600;2023-08-01T03:53:08;93964.81;;;16.35;100.00
2000;BME280;1001;48.87406500;9.59633600;2023-08-01T03:55:36;93960.63;;;16.34;100.00
2000;BME280;1001;48.87406500;9.59633600;2023-08-01T03:58:03;93953.28;;;16.31;100.00
2000;BME280;1001;48.87406500;9.59633600;2023-08-01T04:00:30;93960.53;;;16.40;100.00
2000;BME280;1001;48.87406500;9.59633600;2023-08-01T04:02:57;93960.25;;;16.41;100.00
2000;BME280;1001;48.87406500;9.59633600;2023-08-01T04:05:24;93961.78;;;16.42;100.00
2000;BME280;1001;48.87406500;9.59633600;2023-08-01T04:07:51;93958.09;;;16.43;100.00
2000;BME280;1001;48.87406500;9.59633600;2023-08-01T04:10:20;93962.56;;;16.43;100.00
2000;BME280;1001;48.87406500;9.59633600;2023-08-01T04:12:48;93961.41;;;16.49;100.00
2000;BME280;1001;48.87406500;9.59633600;2023-08-01T04:15:14;93955.34;;;16.48;100.00
2000;BME280;1001;48.87406500;9.59633600;2023-08-01T04:17:41;93938.44;;;16.49;100.00
2000;BME280;1001;48.87406500;9.59633600;2023-08-01T04:20:08;93937.38;;;16.50;100.00
2000;BME280;1001;48.87406500;9.59633600;2023-08-01T04:22:35;93929.19;;;16.52;100.00
2000;BME280;1001;48.87406500;9.59633600;2023-08-01T04:25:02;93926.75;;;16.55;100.00
2000;BME280;1001;48.87406500;9.59633600;2023-08-01T04:27:29;93932.81;;;16.56;100.00
2000;BME280;1001;48.87406500;9.59633600;2023-08-01T04:29:57;93908.44;;;16.59;100.00
2000;BME280;1001;48.87406500;9.59633600;2023-08-01T04:32:24;93891.38;;;16.56;100.00
2000;BME280;1001;48.87406500;9.59633600;2023-08-01T04:34:50;93889.69;;;16.60;100.00
2000;BME280;1001;48.87406500;9.59633600;2023-08-01T04:37:17;93874.44;;;16.57;100.00
2000;BME280;1001;48.87406500;9.59633600;2023-08-01T04:39:45;93877.09;;;16.57;100.00
2000;BME280;1001;48.87406500;9.59633600;2023-08-01T04:42:12;93867.63;;;16.56;100.00
2000;BME280;1001;48.87406500;9.59633600;2023-08-01T04:44:39;93869.00;;;16.54;100.00
2000;BME280;1001;48.87406500;9.59633600;2023-08-01T04:47:07;93873.66;;;16.57;100.00
2000;BME280;1001;48.87406500;9.59633600;2023-08-01T04:49:33;93867.00;;;16.59;100.00
2000;BME280;1001;48.87406500;9.59633600;2023-08-01T04:52:00;93855.66;;;16.59;100.00
2000;BME280;1001;48.87406500;9.59633600;2023-08-01T04:54:27;93860.66;;;16.60;100.00
2000;BME280;1001;48.87406500;9.59633600;2023-08-01T04:56:53;93856.19;;;16.61;100.00
2000;BME280;1001;48.87406500;9.59633600;2023-08-01T04:59:20;93849.31;;;16.60;100.00
2000;BME280;1001;48.87406500;9.59633600;2023-08-01T05:01:46;93851.47;;;16.58;100.00
2000;BME280;1001;48.87406500;9.59633600;2023-08-01T05:04:14;93863.97;;;16.66;100.00
2000;BME280;1001;48.87406500;9.59633600;2023-08-01T05:06:41;93864.34;;;16.73;100.00
2000;BME280;1001;48.87406500;9.59633600;2023-08-01T05:09:08;93868.19;;;16.67;100.00
2000;BME280;1001;48.87406500;9.59633600;2023-08-01T05:11:34;93883.59;;;16.73;100.00
2000;BME280;1001;48.87406500;9.59633600;2023-08-01T05:14:01;93898.06;;;16.76;100.00
2000;BME280;1001;48.87406500;9.59633600;2023-08-01T05:16:28;93894.00;;;16.70;100.00
2000;BME280;1001;48.87406500;9.59633600;2023-08-01T05:18:54;93895.47;;;16.62;100.00
2000;BME280;1001;48.87406500;9.59633600;2023-08-01T05:21:22;93907.84;;;16.75;100.00
2000;BME280;1001;48.87406500;9.59633600;2023-08-01T05:23:49;93898.66;;;16.73;100.00
2000;BME280;1001;48.87406500;9.59633600;2023-08-01T05:26:16;93906.47;;;16.78;100.00
2000;BME280;1001;48.87406500;9.59633600;2023-08-01T05:28:42;93918.31;;;16.80;100.00
2000;BME280;1001;48.87406500;9.59633600;2023-08-01T05:31:09;93914.50;;;16.73;100.00
2000;BME280;1001;48.87406500;9.59633600;2023-08-01T05:33:36;93920.19;;;16.80;100.00
2000;BME280;1001;48.87406500;9.59633600;2023-08-01T05:36:02;93902.56;;;16.75;100.00
2000;BME280;1001;48.87406500;9.59633600;2023-08-01T05:38:30;93900.25;;;16.74;100.00
2000;BME280;1001;48.87406500;9.59633600;2023-08-01T05:40:57;93900.53;;;16.72;100.00
2000;BME280;1001;48.87406500;9.59633600;2023-08-01T05:43:24;93897.91;;;16.72;100.00
2000;BME280;1001;48.87406500;9.59633600;2023-08-01T05:45:50;93900.34;;;16.69;100.00
2000;BME280;1001;48.87406500;9.59633600;2023-08-01T05:48:17;93897.69;;;16.69;100.00
2000;BME280;1001;48.87406500;9.59633600;2023-08-01T05:50:44;93903.19;;;16.72;100.00
2000;BME280;1001;48.87406500;9.59633600;2023-08-01T05:53:10;93900.81;;;16.71;100.00
2000;BME280;1001;48.87406500;9.59633600;2023-08-01T05:55:38;93908.75;;;16.71;100.00
2000;BME280;1001;48.87406500;9.59633600;2023-08-01T05:58:05;93905.03;;;16.72;100.00
2000;BME280;1001;48.87406500;9.59633600;2023-08-01T06:00:31;93908.94;;;16.74;100.00
2000;BME280;1001;48.87406500;9.59633600;2023-08-01T06:02:58;93905.22;;;16.75;100.00
2000;BME280;1001;48.87406500;9.59633600;2023-08-01T06:05:26;93898.56;;;16.78;100.00
2000;BME280;1001;48.87406500;9.59633600;2023-08-01T06:07:52;93903.66;;;16.74;100.00
2000;BME280;1001;48.87406500;9.59633600;2023-08-01T06:10:19;93884.09;;;16.75;100.00
2000;BME280;1001;48.87406500;9.59633600;2023-08-01T06:12:47;93900.13;;;16.79;100.00
2000;BME280;1001;48.87406500;9.59633600;2023-08-01T06:15:14;93904.03;;;16.81;100.00
2000;BME280;1001;48.87406500;9.59633600;2023-08-01T06:17:40;93893.00;;;16.79;100.00
2000;BME280;1001;48.87406500;9.59633600;2023-08-01T06:20:08;93897.38;;;16.84;100.00
2000;BME280;1001;48.87406500;9.59633600;2023-08-01T06:22:35;93899.72;;;16.85;100.00
2000;BME280;1001;48.87406500;9.59633600;2023-08-01T06:25:01;93894.22;;;16.95;100.00
2000;BME280;1001;48.87406500;9.59633600;2023-08-01T06:27:28;93894.53;;;16.94;100.00
2000;BME280;1001;48.87406500;9.59633600;2023-08-01T06:29:56;93884.09;;;16.89;100.00
2000;BME280;1001;48.87406500;9.59633600;2023-08-01T06:32:23;93879.28;;;16.91;100.00
2000;BME280;1001;48.87406500;9.59633600;2023-08-01T06:34:50;93863.72;;;16.89;100.00
2000;BME280;1001;48.87406500;9.59633600;2023-08-01T06:37:16;93882.19;;;16.89;100.00
2000;BME280;1001;48.87406500;9.59633600;2023-08-01T06:39:43;93901.00;;;16.88;100.00
2000;BME280;1001;48.87406500;9.59633600;2023-08-01T06:42:09;93905.59;;;16.82;100.00
2000;BME280;1001;48.87406500;9.59633600;2023-08-01T06:44:36;93906.69;;;16.81;100.00
2000;BME280;1001;48.87406500;9.59633600;2023-08-01T06:47:05;93924.69;;;16.79;100.00
2000;BME280;1001;48.87406500;9.59633600;2023-08-01T06:49:32;93953.03;;;16.74;100.00
2000;BME280;1001;48.87406500;9.59633600;2023-08-01T06:51:58;93938.09;;;16.56;100.00
2000;BME280;1001;48.87406500;9.59633600;2023-08-01T06:54:25;93946.66;;;16.34;100.00
2000;BME280;1001;48.87406500;9.59633600;2023-08-01T06:56:51;93935.69;;;16.13;100.00
2000;BME280;1001;48.87406500;9.59633600;2023-08-01T06:59:18;93942.97;;;16.03;100.00
2000;BME280;1001;48.87406500;9.59633600;2023-08-01T07:01:45;93945.22;;;15.96;100.00
2000;BME280;1001;48.87406500;9.59633600;2023-08-01T07:04:13;93944.03;;;15.88;100.00
2000;BME280;1001;48.87406500;9.59633600;2023-08-01T07:06:40;93948.31;;;15.84;100.00
2000;BME280;1001;48.87406500;9.59633600;2023-08-01T07:09:07;93947.81;;;15.82;100.00
2000;BME280;1001;48.87406500;9.59633600;2023-08-01T07:11:33;93929.84;;;15.71;100.00
2000;BME280;1001;48.87406500;9.59633600;2023-08-01T07:14:00;93927.47;;;15.69;100.00
2000;BME280;1001;48.87406500;9.59633600;2023-08-01T07:16:26;93931.97;;;15.69;100.00
2000;BME280;1001;48.87406500;9.59633600;2023-08-01T07:18:54;93928.25;;;15.70;100.00
2000;BME280;1001;48.87406500;9.59633600;2023-08-01T07:21:22;93916.56;;;15.76;100.00
2000;BME280;1001;48.87406500;9.59633600;2023-08-01T07:23:49;93911.00;;;15.77;100.00
2000;BME280;1001;48.87406500;9.59633600;2023-08-01T07:26:16;93914.53;;;15.86;100.00
2000;BME280;1001;48.87406500;9.59633600;2023-08-01T07:28:42;93904.78;;;15.87;100.00
2000;BME280;1001;48.87406500;9.59633600;2023-08-01T07:31:09;93900.78;;;15.89;100.00
2000;BME280;1001;48.87406500;9.59633600;2023-08-01T07:33:36;93887.31;;;15.91;100.00
2000;BME280;1001;48.87406500;9.59633600;2023-08-01T07:36:03;93879.59;;;16.08;100.00
2000;BME280;1001;48.87406500;9.59633600;2023-08-01T07:38:31;93894.84;;;16.11;100.00
2000;BME280;1001;48.87406500;9.59633600;2023-08-01T07:41:02;93913.50;;;16.01;100.00
2000;BME280;1001;48.87406500;9.59633600;2023-08-01T07:43:29;93932.03;;;15.96;100.00
2000;BME280;1001;48.87406500;9.59633600;2023-08-01T07:45:56;93949.69;;;15.95;100.00
2000;BME280;1001;48.87406500;9.59633600;2023-08-01T07:48:23;93963.56;;;15.87;100.00
2000;BME280;1001;48.87406500;9.59633600;2023-08-01T07:50:50;93957.38;;;15.78;100.00
2000;BME280;1001;48.87406500;9.59633600;2023-08-01T07:53:16;93955.69;;;15.69;100.00
2000;BME280;1001;48.87406500;9.59633600;2023-08-01T07:55:44;93956.84;;;15.62;100.00
2000;BME280;1001;48.87406500;9.59633600;2023-08-01T07:58:11;93938.38;;;15.62;100.00
2000;BME280;1001;48.87406500;9.59633600;2023-08-01T08:00:38;93937.31;;;15.63;100.00
2000;BME280;1001;48.87406500;9.59633600;2023-08-01T08:03:05;93928.41;;;15.59;100.00
2000;BME280;1001;48.87406500;9.59633600;2023-08-01T08:05:33;93916.31;;;15.58;100.00
2000;BME280;1001;48.87406500;9.59633600;2023-08-01T08:08:03;93919.16;;;15.62;100.00
2000;BME280;1001;48.87406500;9.59633600;2023-08-01T08:10:30;93910.75;;;15.60;100.00
2000;BME280;1001;48.87406500;9.59633600;2023-08-01T08:12:58;93928.81;;;15.66;100.00
2000;BME280;1001;48.87406500;9.59633600;2023-08-01T08:15:25;93938.50;;;15.71;100.00
2000;BME280;1001;48.87406500;9.59633600;2023-08-01T08:17:51;93927.47;;;15.69;100.00
2000;BME280;1001;48.87406500;9.59633600;2023-08-01T08:20:18;93930.09;;;15.69;100.00
2000;BME280;1001;48.87406500;9.59633600;2023-08-01T08:22:45;93929.03;;;15.70;100.00
2000;BME280;1001;48.87406500;9.59633600;2023-08-01T08:25:11;93923.22;;;15.73;100.00
2000;BME280;1001;48.87406500;9.59633600;2023-08-01T08:27:38;93921.31;;;15.74;100.00
2000;BME280;1001;48.87406500;9.59633600;2023-08-01T08:30:07;93909.44;;;15.76;100.00
2000;BME280;1001;48.87406500;9.59633600;2023-08-01T08:32:35;93909.56;;;15.85;100.00
2000;BME280;1001;48.87406500;9.59633600;2023-08-01T08:35:02;93904.06;;;15.81;100.00
2000;BME280;1001;48.87406500;9.59633600;2023-08-01T08:37:28;93912.47;;;15.83;100.00
2000;BME280;1001;48.87406500;9.59633600;2023-08-01T08:39:55;93909.06;;;15.83;100.00
2000;BME280;1001;48.87406500;9.59633600;2023-08-01T08:42:21;93915.41;;;15.82;100.00
2000;BME280;1001;48.87406500;9.59633600;2023-08-01T08:44:51;93921.63;;;15.72;100.00
2000;BME280;1001;48.87406500;9.59633600;2023-08-01T08:47:24;93924.75;;;15.74;100.00
2000;BME280;1001;48.87406500;9.59633600;2023-08-01T08:49:52;93911.19;;;15.81;100.00
2000;BME280;1001;48.87406500;9.59633600;2023-08-01T08:52:21;93905.75;;;15.91;100.00
2000;BME280;1001;48.87406500;9.59633600;2023-08-01T08:54:49;93921.09;;;16.02;100.00
2000;BME280;1001;48.87406500;9.59633600;2023-08-01T08:57:15;93903.13;;;16.04;100.00
2000;BME280;1001;48.87406500;9.59633600;2023-08-01T08:59:43;93919.81;;;16.00;100.00
2000;BME280;1001;48.87406500;9.59633600;2023-08-01T09:02:10;93912.91;;;16.04;100.00
2000;BME280;1001;48.87406500;9.59633600;2023-08-01T09:04:38;93919.25;;;16.16;100.00
2000;BME280;1001;48.87406500;9.59633600;2023-08-01T09:07:09;93926.69;;;16.28;100.00
2000;BME280;1001;48.87406500;9.59633600;2023-08-01T09:09:36;93920.66;;;16.41;100.00
2000;BME280;1001;48.87406500;9.59633600;2023-08-01T09:12:04;93918.19;;;16.45;100.00
2000;BME280;1001;48.87406500;9.59633600;2023-08-01T09:14:31;93910.28;;;16.45;100.00
2000;BME280;1001;48.87406500;9.59633600;2023-08-01T09:17:06;93912.38;;;16.61;100.00
2000;BME280;1001;48.87406500;9.59633600;2023-08-01T09:19:32;93905.00;;;16.45;100.00
2000;BME280;1001;48.87406500;9.59633600;2023-08-01T09:22:01;93914.91;;;16.39;100.00
2000;BME280;1001;48.87406500;9.59633600;2023-08-01T09:24:27;93902.09;;;16.32;100.00
2000;BME280;1001;48.87406500;9.59633600;2023-08-01T09:27:02;93909.13;;;16.37;100.00
2000;BME280;1001;48.87406500;9.59633600;2023-08-01T09:29:30;93912.16;;;16.30;100.00
2000;BME280;1001;48.87406500;9.59633600;2023-08-01T09:31:58;93918.22;;;16.31;100.00
2000;BME280;1001;48.87406500;9.59633600;2023-08-01T09:34:26;93908.13;;;16.33;100.00
2000;BME280;1001;48.87406500;9.59633600;2023-08-01T09:36:57;93918.78;;;16.28;100.00
2000;BME280;1001;48.87406500;9.59633600;2023-08-01T09:39:26;93931.88;;;16.19;100.00
2000;BME280;1001;48.87406500;9.59633600;2023-08-01T09:41:56;93917.81;;;16.24;100.00
2000;BME280;1001;48.87406500;9.59633600;2023-08-01T09:44:23;93915.25;;;16.19;100.00
2000;BME280;1001;48.87406500;9.59633600;2023-08-01T09:46:58;93919.19;;;16.21;100.00
2000;BME280;1001;48.87406500;9.59633600;2023-08-01T09:49:26;93926.59;;;16.33;100.00
2000;BME280;1001;48.87406500;9.59633600;2023-08-01T09:51:53;93918.50;;;16.43;100.00
2000;BME280;1001;48.87406500;9.59633600;2023-08-01T09:54:20;93927.22;;;16.57;100.00
2000;BME280;1001;48.87406500;9.59633600;2023-08-01T09:56:49;93924.91;;;16.56;100.00
2000;BME280;1001;48.87406500;9.59633600;2023-08-01T09:59:19;93937.78;;;16.57;100.00
2000;BME280;1001;48.87406500;9.59633600;2023-08-01T10:01:47;93933.41;;;16.80;100.00
2000;BME280;1001;48.87406500;9.59633600;2023-08-01T10:04:16;93932.00;;;16.82;100.00
2000;BME280;1001;48.87406500;9.59633600;2023-08-01T10:06:43;93943.75;;;16.76;100.00
2000;BME280;1001;48.87406500;9.59633600;2023-08-01T10:09:12;93950.22;;;16.70;100.00
2000;BME280;1001;48.87406500;9.59633600;2023-08-01T10:11:40;93947.25;;;16.85;100.00
2000;BME280;1001;48.87406500;9.59633600;2023-08-01T10:14:09;93943.34;;;16.83;100.00
2000;BME280;1001;48.87406500;9.59633600;2023-08-01T10:16:36;93939.72;;;16.92;100.00
2000;BME280;1001;48.87406500;9.59633600;2023-08-01T10:19:06;93941.47;;;16.97;100.00
2000;BME280;1001;48.87406500;9.59633600;2023-08-01T10:21:33;93943.94;;;16.93;100.00
2000;BME280;1001;48.87406500;9.59633600;2023-08-01T10:24:00;93945.19;;;16.96;100.00
2000;BME280;1001;48.87406500;9.59633600;2023-08-01T10:26:29;93943.03;;;16.98;100.00
2000;BME280;1001;48.87406500;9.59633600;2023-08-01T10:28:56;93952.03;;;16.97;100.00
2000;BME280;1001;48.87406500;9.59633600;2023-08-01T10:31:25;93953.69;;;17.07;100.00
2000;BME280;1001;48.87406500;9.59633600;2023-08-01T10:33:52;93959.13;;;17.24;100.00
2000;BME280;1001;48.87406500;9.59633600;2023-08-01T10:36:29;93954.16;;;17.44;100.00
2000;BME280;1001;48.87406500;9.59633600;2023-08-01T10:38:59;93959.75;;;17.56;100.00
2000;BME280;1001;48.87406500;9.59633600;2023-08-01T10:41:28;93956.38;;;17.51;100.00
2000;BME280;1001;48.87406500;9.59633600;2023-08-01T10:44:08;93958.19;;;17.42;100.00
2000;BME280;1001;48.87406500;9.59633600;2023-08-01T10:46:52;93949.13;;;17.34;100.00
2000;BME280;1001;48.87406500;9.59633600;2023-08-01T10:49:20;93952.09;;;17.19;100.00
2000;BME280;1001;48.87406500;9.59633600;2023-08-01T10:51:47;93966.09;;;17.06;100.00
2000;BME280;1001;48.87406500;9.59633600;2023-08-01T10:54:21;93962.28;;;17.12;100.00
2000;BME280;1001;48.87406500;9.59633600;2023-08-01T10:56:49;93962.06;;;17.22;100.00
2000;BME280;1001;48.87406500;9.59633600;2023-08-01T10:59:17;93956.75;;;17.36;100.00
2000;BME280;1001;48.87406500;9.59633600;2023-08-01T11:01:45;93949.97;;;17.43;100.00
2000;BME280;1001;48.87406500;9.59633600;2023-08-01T11:04:17;93956.91;;;17.39;100.00
2000;BME280;1001;48.87406500;9.59633600;2023-08-01T11:06:45;93960.22;;;17.81;100.00
2000;BME280;1001;48.87406500;9.59633600;2023-08-01T11:09:20;93964.75;;;18.02;100.00
2000;BME280;1001;48.87406500;9.59633600;2023-08-01T11:11:49;93956.06;;;18.10;100.00
2000;BME280;1001;48.87406500;9.59633600;2023-08-01T11:14:16;93958.22;;;18.39;100.00
2000;BME280;1001;48.87406500;9.59633600;2023-08-01T11:16:45;93965.53;;;18.64;100.00
2000;BME280;1001;48.87406500;9.59633600;2023-08-01T11:19:21;93970.41;;;18.71;100.00
2000;BME280;1001;48.87406500;9.59633600;2023-08-01T11:21:48;93977.69;;;18.65;100.00
2000;BME280;1001;48.87406500;9.59633600;2023-08-01T11:24:16;93978.44;;;18.57;100.00
2000;BME280;1001;48.87406500;9.59633600;2023-08-01T11:26:43;93973.09;;;18.49;100.00
2000;BME280;1001;48.87406500;9.59633600;2023-08-01T11:29:11;93982.59;;;18.80;100.00
2000;BME280;1001;48.87406500;9.59633600;2023-08-01T11:31:38;93977.75;;;18.82;100.00
2000;BME280;1001;48.87406500;9.59633600;2023-08-01T11:34:05;93993.47;;;19.35;100.00
2000;BME280;1001;48.87406500;9.59633600;2023-08-01T11:36:34;94001.16;;;19.71;100.00